Time;durP1;ratioP1;P1;durP2;ratioP2;P2;SDS_P1;SDS_P2;PMS_P1;PMS_P2;Temp;Humidity;BMP_temperature;BMP_pressure;BME280_temperature;BME280_humidity;BME280_pressure;Samples;Min_cycle;Max_cycle;Signal;HPM_P1;HPM_P2
2023/08/01 00:01:12;;;;;;;5.68;2.83;;;;;;;25.07;44.06;99654.03;5094808;28;20579;-63
2023/08/01 00:03:41;;;;;;;7.15;2.90;;;;;;;25.06;44.16;99657.81;5093238;28;20044;-63
2023/08/01 00:06:10;;;;;;;5.97;2.83;;;;;;;25.04;44.32;99654.47;5094454;28;20080;-63
2023/08/01 00:08:38;;;;;;;6.20;2.83;;;;;;;25.03;44.26;99655.50;5093960;28;20048;-63
2023/08/01 00:11:07;;;;;;;6.03;3.08;;;;;;;25.01;44.20;99656.72;5093684;28;20063;-62
2023/08/01 00:13:35;;;;;;;6.32;2.90;;;;;;;25.00;44.54;99657.78;5093125;28;20048;-62
2023/08/01 00:16:03;;;;;;;5.95;2.50;;;;;;;24.99;44.38;99651.44;5093041;28;20131;-62
2023/08/01 00:18:35;;;;;;;6.55;3.00;;;;;;;24.97;44.56;99645.34;5093272;28;20048;-62
2023/08/01 00:21:09;;;;;;;6.40;2.92;;;;;;;24.96;44.47;99653.75;5093229;28;20044;-62
2023/08/01 00:23:38;;;;;;;5.82;2.70;;;;;;;24.95;44.54;99655.63;5093080;28;20048;-63
2023/08/01 00:26:07;;;;;;;5.40;2.78;;;;;;;24.94;44.77;99653.94;5092923;28;20048;-62
2023/08/01 00:28:35;;;;;;;7.47;2.80;;;;;;;24.92;44.64;99658.75;5092731;28;20040;-62
2023/08/01 00:31:05;;;;;;;4.45;2.58;;;;;;;24.91;44.59;99662.53;5092600;28;20052;-62
2023/08/01 00:33:34;;;;;;;5.18;2.90;;;;;;;24.90;44.87;99663.56;5092852;28;20074;-62
2023/08/01 00:36:02;;;;;;;7.13;2.88;;;;;;;24.88;44.64;99653.88;5092653;28;20048;-62
2023/08/01 00:38:32;;;;;;;4.05;2.38;;;;;;;24.86;44.74;99654.09;5092477;28;20105;-62
2023/08/01 00:41:00;;;;;;;5.00;2.53;;;;;;;24.86;44.72;99651.38;5073992;28;20054;-61
2023/08/01 00:43:28;;;;;;;5.85;2.80;;;;;;;24.84;44.96;99648.00;5092256;28;20131;-62
2023/08/01 00:46:02;;;;;;;6.35;2.75;;;;;;;24.80;45.09;99633.94;5092171;28;20139;-63
2023/08/01 00:48:31;;;;;;;4.72;2.72;;;;;;;24.81;44.98;99643.78;5092378;28;20117;-63
2023/08/01 00:51:01;;;;;;;4.70;2.45;;;;;;;24.80;45.02;99630.31;5092257;28;20139;-62
2023/08/01 00:53:32;;;;;;;5.35;2.63;;;;;;;24.77;44.99;99634.31;5092081;28;20052;-62
2023/08/01 00:56:01;;;;;;;5.82;2.80;;;;;;;24.75;45.05;99628.22;5092026;28;20083;-61
2023/08/01 00:58:30;;;;;;;5.65;2.80;;;;;;;24.74;44.98;99629.25;5092025;28;20496;-62
2023/08/01 01:00:59;;;;;;;7.90;2.50;;;;;;;24.73;45.14;99629.47;5092164;28;20044;-62
2023/08/01 01:03:28;;;;;;;5.55;2.53;;;;;;;24.72;45.13;99623.16;5091964;28;20062;-62
2023/08/01 01:06:07;;;;;;;5.38;2.63;;;;;;;24.70;45.04;99618.94;5091867;28;20512;-63
2023/08/01 01:08:37;;;;;;;5.00;2.70;;;;;;;24.68;45.05;99615.56;5092340;28;20071;-62
2023/08/01 01:11:05;;;;;;;5.75;3.08;;;;;;;24.68;45.19;99615.56;5091642;28;20223;-62
2023/08/01 01:13:33;;;;;;;6.68;2.72;;;;;;;24.64;45.16;99609.69;5091894;28;20052;-62
2023/08/01 01:16:03;;;;;;;5.47;2.58;;;;;;;24.62;45.17;99609.03;5091672;28;20044;-62
2023/08/01 01:18:31;;;;;;;7.05;3.08;;;;;;;24.64;44.97;99614.28;5091777;28;20080;-62
2023/08/01 01:21:00;;;;;;;12.23;3.08;;;;;;;24.62;44.99;99605.47;5091442;28;20040;-62
2023/08/01 01:23:29;;;;;;;4.88;2.50;;;;;;;24.60;45.26;99610.25;5091594;28;20040;-62
2023/08/01 01:25:59;;;;;;;6.25;2.83;;;;;;;24.61;45.27;99606.47;5091746;28;20083;-62
2023/08/01 01:28:27;;;;;;;5.47;2.58;;;;;;;24.58;45.15;99604.16;5091549;28;20048;-62
2023/08/01 01:30:57;;;;;;;6.18;2.90;;;;;;;24.57;45.23;99597.03;5091597;28;20066;-62
2023/08/01 01:33:25;;;;;;;5.55;2.75;;;;;;;24.53;45.38;99591.97;5091498;28;20127;-61
2023/08/01 01:35:55;;;;;;;5.78;3.08;;;;;;;24.53;45.59;99596.59;5091473;28;20505;-62
2023/08/01 01:38:25;;;;;;;5.90;3.00;;;;;;;24.52;45.42;99594.91;5091739;28;20052;-62
2023/08/01 01:40:53;;;;;;;7.30;3.08;;;;;;;24.51;45.38;99594.06;5091581;28;20075;-62
2023/08/01 01:43:21;;;;;;;6.22;3.05;;;;;;;24.50;45.25;99600.53;5091152;28;20051;-63
2023/08/01 01:45:49;;;;;;;5.90;2.67;;;;;;;24.49;45.46;99596.13;5091406;28;20492;-62
2023/08/01 01:48:17;;;;;;;8.25;2.97;;;;;;;24.47;45.41;99598.22;5091668;28;20052;-62
2023/08/01 01:50:45;;;;;;;5.03;2.80;;;;;;;24.45;45.56;99592.13;5091503;28;20500;-62
2023/08/01 01:53:14;;;;;;;5.88;2.65;;;;;;;24.45;45.56;99588.56;5091292;28;20490;-62
2023/08/01 01:55:44;;;;;;;5.15;2.75;;;;;;;24.42;45.62;99588.97;5091272;28;20044;-62
2023/08/01 01:58:15;;;;;;;7.20;2.70;;;;;;;24.41;45.66;99585.38;5091337;28;20047;-63
2023/08/01 02:00:43;;;;;;;6.88;2.92;;;;;;;24.40;45.59;99580.97;5091170;28;20451;-61
2023/08/01 02:03:12;;;;;;;6.75;3.10;;;;;;;24.39;45.54;99579.28;5091475;28;20125;-62
2023/08/01 02:05:41;;;;;;;6.20;2.92;;;;;;;24.38;45.72;99571.31;5091298;28;20485;-61
2023/08/01 02:08:09;;;;;;;7.60;2.80;;;;;;;24.37;45.69;99580.53;5091393;28;20102;-62
2023/08/01 02:10:37;;;;;;;7.25;3.10;;;;;;;24.35;45.80;99566.25;5091102;28;20063;-62
2023/08/01 02:13:08;;;;;;;5.38;2.85;;;;;;;24.34;46.00;99573.59;5091026;28;20124;-61
2023/08/01 02:15:36;;;;;;;7.10;2.72;;;;;;;24.31;45.57;99563.06;5091413;28;20059;-61
2023/08/01 02:18:05;;;;;;;5.93;2.70;;;;;;;24.30;45.61;99561.34;5091309;28;20044;-61
2023/08/01 02:20:33;;;;;;;6.43;2.80;;;;;;;24.29;45.75;99559.66;5091279;28;20044;-61
2023/08/01 02:23:02;;;;;;;4.93;2.67;;;;;;;24.26;45.71;99560.06;5091137;28;20094;-60
2023/08/01 02:25:30;;;;;;;6.75;2.97;;;;;;;24.26;45.71;99557.34;5091082;28;20048;-62
2023/08/01 02:27:58;;;;;;;8.77;2.95;;;;;;;24.26;46.08;99562.81;5094139;28;20076;-61
2023/08/01 02:30:29;;;;;;;6.43;2.83;;;;;;;24.24;45.82;99562.16;5094987;28;20075;-61
2023/08/01 02:32:57;;;;;;;5.78;2.65;;;;;;;24.22;46.02;99558.75;5094797;28;20526;-62
2023/08/01 02:35:26;;;;;;;6.25;2.90;;;;;;;24.22;45.86;99562.38;5094767;28;20094;-61
2023/08/01 02:37:54;;;;;;;6.22;2.53;;;;;;;24.22;46.04;99567.81;5094684;28;20412;-63
2023/08/01 02:40:22;;;;;;;7.70;2.88;;;;;;;24.19;46.06;99561.91;5094519;28;20048;-61
2023/08/01 02:42:50;;;;;;;6.80;2.90;;;;;;;24.19;46.03;99557.28;5094813;28;20515;-61
2023/08/01 02:45:19;;;;;;;7.25;3.08;;;;;;;24.17;46.14;99558.53;5093964;28;20047;-61
2023/08/01 02:47:48;;;;;;;6.43;2.90;;;;;;;24.16;46.09;99554.97;5094624;28;20044;-61
2023/08/01 02:50:17;;;;;;;10.73;3.10;;;;;;;24.14;46.16;99550.75;5094465;28;20044;-62
2023/08/01 02:52:45;;;;;;;8.32;2.90;;;;;;;24.13;46.24;99546.34;5094439;28;20089;-62
2023/08/01 02:55:13;;;;;;;6.10;2.67;;;;;;;24.13;46.10;99549.91;5094234;28;20052;-63
2023/08/01 02:57:42;;;;;;;6.30;3.08;;;;;;;24.11;46.25;99549.25;5094334;28;20044;-62
2023/08/01 03:00:11;;;;;;;7.97;2.85;;;;;;;24.11;46.52;99551.13;5076525;28;20055;-62
2023/08/01 03:02:40;;;;;;;8.65;2.80;;;;;;;24.09;46.27;99550.50;5094381;28;20354;-62
2023/08/01 03:05:10;;;;;;;7.45;3.10;;;;;;;24.09;46.18;99550.50;5094223;28;20117;-61
2023/08/01 03:07:39;;;;;;;4.93;2.63;;;;;;;24.07;46.20;99552.56;5094130;28;20044;-62
2023/08/01 03:10:07;;;;;;;6.45;2.85;;;;;;;24.06;46.17;99551.72;5094172;28;20056;-62
2023/08/01 03:12:39;;;;;;;7.60;2.83;;;;;;;24.06;46.20;99550.91;5094240;28;20059;-63
2023/08/01 03:15:10;;;;;;;7.55;2.92;;;;;;;24.05;46.33;99546.50;5094166;28;20936;-62
2023/08/01 03:17:39;;;;;;;7.15;3.15;;;;;;;24.04;46.14;99548.38;5094017;28;20047;-62
2023/08/01 03:20:10;;;;;;;6.53;2.55;;;;;;;24.01;46.34;99545.19;5093808;28;20080;-60
2023/08/01 03:22:39;;;;;;;7.57;2.88;;;;;;;24.01;46.36;99542.44;5094133;28;20185;-60
2023/08/01 03:25:08;;;;;;;5.90;2.75;;;;;;;23.98;46.37;99539.09;5093933;28;20067;-62
2023/08/01 03:27:37;;;;;;;7.32;3.03;;;;;;;23.97;46.25;99547.47;5093665;28;20055;-62
2023/08/01 03:30:08;;;;;;;7.03;2.97;;;;;;;23.96;46.58;99537.59;5093786;28;20414;-62
2023/08/01 03:32:37;;;;;;;6.88;2.80;;;;;;;23.95;46.61;99535.94;5093388;28;20056;-62
2023/08/01 03:35:06;;;;;;;8.48;2.95;;;;;;;23.94;46.42;99536.97;5093804;28;20050;-61
2023/08/01 03:37:36;;;;;;;6.05;2.83;;;;;;;23.94;46.41;99539.69;5092959;28;20098;-61
2023/08/01 03:40:05;;;;;;;7.00;2.80;;;;;;;23.93;46.52;99533.41;5093128;28;20127;-60
2023/08/01 03:42:36;;;;;;;8.30;2.70;;;;;;;23.92;46.54;99530.84;5093417;28;20131;-61
2023/08/01 03:45:06;;;;;;;5.30;2.70;;;;;;;23.91;46.60;99534.63;5093325;28;20146;-61
2023/08/01 03:47:34;;;;;;;7.10;2.85;;;;;;;23.89;46.62;99534.81;5093346;28;20397;-61
2023/08/01 03:50:02;;;;;;;6.53;2.80;;;;;;;23.90;46.45;99532.94;5093462;28;20082;-62
2023/08/01 03:52:31;;;;;;;7.18;2.90;;;;;;;23.88;46.45;99532.28;5093511;28;20482;-61
2023/08/01 03:55:00;;;;;;;8.27;2.83;;;;;;;23.88;46.71;99537.75;5093274;28;20051;-61
2023/08/01 03:57:29;;;;;;;5.57;3.03;;;;;;;23.88;46.78;99533.13;5093032;28;20049;-61
2023/08/01 03:59:57;;;;;;;7.07;3.28;;;;;;;23.86;47.06;99529.75;5093082;28;20381;-61
2023/08/01 04:02:25;;;;;;;7.80;2.90;;;;;;;23.86;46.73;99534.38;5093202;28;20048;-61
2023/08/01 04:04:54;;;;;;;4.72;2.60;;;;;;;23.86;46.88;99532.50;5093190;28;20094;-63
2023/08/01 04:07:22;;;;;;;5.88;2.90;;;;;;;23.86;46.91;99535.22;5093099;28;20358;-61
2023/08/01 04:09:50;;;;;;;9.05;2.80;;;;;;;23.86;46.99;99537.94;5092801;28;20386;-63
2023/08/01 04:12:20;;;;;;;6.63;2.90;;;;;;;23.86;47.05;99540.66;5092848;28;20048;-61
2023/08/01 04:14:48;;;;;;;4.50;2.78;;;;;;;23.86;47.02;99537.09;5092888;28;20044;-62
2023/08/01 04:17:16;;;;;;;5.82;3.13;;;;;;;23.86;47.05;99529.75;5093005;28;20052;-61
2023/08/01 04:19:45;;;;;;;6.18;2.90;;;;;;;23.85;47.17;99528.09;5092761;28;20051;-62
2023/08/01 04:22:13;;;;;;;5.88;2.97;;;;;;;23.86;47.19;99527.03;5092905;28;20055;-62
2023/08/01 04:24:41;;;;;;;9.30;2.85;;;;;;;23.85;47.26;99528.09;5092717;28;20140;-61
2023/08/01 04:27:09;;;;;;;6.90;2.90;;;;;;;23.84;47.33;99523.69;5092546;28;20101;-62
2023/08/01 04:29:39;;;;;;;5.93;2.92;;;;;;;23.84;47.36;99520.97;5092590;28;20044;-61
2023/08/01 04:32:08;;;;;;;6.40;2.92;;;;;;;23.84;47.37;99520.13;5092265;28;20052;-62
2023/08/01 04:34:36;;;;;;;5.55;3.08;;;;;;;23.84;47.43;99529.13;5092454;28;20070;-62
2023/08/01 04:37:05;;;;;;;6.57;3.08;;;;;;;23.85;47.53;99524.53;5092456;28;20048;-62
2023/08/01 04:39:33;;;;;;;6.85;3.35;;;;;;;23.84;47.54;99523.69;5092269;28;20478;-62
2023/08/01 04:42:01;;;;;;;6.60;2.90;;;;;;;23.85;47.47;99527.25;5092507;28;20413;-61
2023/08/01 04:44:30;;;;;;;6.65;3.10;;;;;;;23.84;47.95;99526.41;5092124;28;20477;-62
2023/08/01 04:47:00;;;;;;;6.63;3.15;;;;;;;23.84;47.76;99526.41;5092185;28;20044;-62
2023/08/01 04:49:28;;;;;;;6.47;2.90;;;;;;;23.85;47.65;99517.19;5091892;28;20059;-61
2023/08/01 04:51:57;;;;;;;5.43;2.80;;;;;;;23.84;47.89;99522.84;5092063;28;20052;-61
2023/08/01 04:54:25;;;;;;;6.93;3.20;;;;;;;23.85;47.77;99528.09;5092107;28;20044;-62
2023/08/01 04:56:53;;;;;;;8.50;3.17;;;;;;;23.85;47.84;99517.19;5092373;28;20135;-62
2023/08/01 04:59:21;;;;;;;6.10;2.92;;;;;;;23.82;47.80;99509.38;5092039;28;20082;-62
2023/08/01 05:01:50;;;;;;;9.93;3.20;;;;;;;23.85;47.86;99514.47;5092030;28;20466;-62
2023/08/01 05:04:19;;;;;;;7.03;2.97;;;;;;;23.86;47.97;99512.59;5091865;28;20050;-62
2023/08/01 05:06:47;;;;;;;5.10;2.60;;;;;;;23.87;47.98;99517.00;5091749;28;20052;-62
2023/08/01 05:09:16;;;;;;;4.68;2.83;;;;;;;23.86;48.01;99513.44;5091763;28;20044;-62
2023/08/01 05:11:44;;;;;;;7.95;3.13;;;;;;;23.86;48.14;99507.97;5091665;28;20056;-61
2023/08/01 05:14:12;;;;;;;6.53;3.20;;;;;;;23.87;48.14;99508.81;5091597;28;20044;-62
2023/08/01 05:16:41;;;;;;;6.85;2.90;;;;;;;23.87;47.98;99515.09;5091794;28;20424;-62
2023/08/01 05:19:09;;;;;;;6.65;3.15;;;;;;;23.87;48.22;99509.66;5091473;28;20070;-63
2023/08/01 05:21:39;;;;;;;6.93;3.13;;;;;;;23.87;48.17;99512.38;5091697;28;20047;-62
2023/08/01 05:24:07;;;;;;;5.25;2.95;;;;;;;23.87;48.29;99509.66;5091385;28;20080;-63
2023/08/01 05:26:36;;;;;;;5.13;3.03;;;;;;;23.87;48.31;99504.22;5091517;28;20070;-62
2023/08/01 05:29:08;;;;;;;6.40;3.22;;;;;;;23.87;48.45;99501.50;5091548;28;20085;-63
2023/08/01 05:31:36;;;;;;;7.30;3.30;;;;;;;23.88;48.46;99511.34;5091312;28;20134;-62
2023/08/01 05:34:07;;;;;;;7.03;3.17;;;;;;;23.87;48.51;99509.66;5091330;28;20054;-62
2023/08/01 05:36:36;;;;;;;6.70;3.13;;;;;;;23.89;48.63;99507.59;5091401;28;20675;-61
2023/08/01 05:39:08;;;;;;;6.28;3.03;;;;;;;23.90;48.75;99516.59;5091472;28;20083;-61
2023/08/01 05:41:37;;;;;;;7.00;3.38;;;;;;;23.90;48.69;99509.25;5091287;28;20501;-61
2023/08/01 05:44:05;;;;;;;5.78;2.95;;;;;;;23.90;48.72;99505.69;5091319;28;20405;-62
2023/08/01 05:46:33;;;;;;;6.75;2.88;;;;;;;23.91;48.74;99508.22;5091131;28;20486;-64
2023/08/01 05:49:02;;;;;;;7.15;3.00;;;;;;;23.93;48.98;99513.47;5091330;28;20109;-63
2023/08/01 05:51:30;;;;;;;7.05;3.45;;;;;;;23.92;48.94;99509.91;5090979;28;20048;-62
2023/08/01 05:53:58;;;;;;;6.80;3.35;;;;;;;23.94;48.97;99509.72;5091209;28;20051;-62
2023/08/01 05:56:28;;;;;;;7.22;3.40;;;;;;;23.94;49.11;99509.72;5091116;28;20048;-61
2023/08/01 05:58:56;;;;;;;6.85;3.10;;;;;;;23.93;49.04;99506.16;5090831;28;20374;-64
2023/08/01 06:01:24;;;;;;;5.53;3.13;;;;;;;23.96;49.14;99505.75;5092004;28;20044;-63
2023/08/01 06:03:53;;;;;;;6.05;3.28;;;;;;;23.97;49.25;99510.16;5095382;28;20059;-62
2023/08/01 06:06:23;;;;;;;7.80;3.60;;;;;;;23.98;49.17;99500.97;5094625;28;20044;-62
2023/08/01 06:08:51;;;;;;;6.05;3.35;;;;;;;24.00;49.43;99514.38;5094969;28;20135;-63
2023/08/01 06:11:20;;;;;;;6.53;3.80;;;;;;;24.02;49.45;99511.44;5094856;28;20048;-62
2023/08/01 06:13:49;;;;;;;8.13;3.47;;;;;;;24.03;49.69;99510.41;5094761;28;20147;-63
2023/08/01 06:16:17;;;;;;;7.57;3.83;;;;;;;24.05;49.46;99516.53;5095105;28;20139;-62
2023/08/01 06:18:45;;;;;;;7.20;3.47;;;;;;;24.05;49.42;99516.53;5095021;28;20040;-62
2023/08/01 06:21:14;;;;;;;8.13;3.78;;;;;;;24.06;49.36;99508.16;5095159;28;20044;-62
2023/08/01 06:23:42;;;;;;;9.30;3.33;;;;;;;24.08;49.66;99510.66;5094643;28;20112;-60
2023/08/01 06:26:10;;;;;;;7.18;3.80;;;;;;;24.09;49.93;99505.03;5094599;28;20093;-61
2023/08/01 06:28:38;;;;;;;11.70;3.63;;;;;;;24.11;49.98;99500.22;5093615;28;20040;-63
2023/08/01 06:31:08;;;;;;;7.68;3.70;;;;;;;24.13;50.27;99503.59;5093529;28;20048;-62
2023/08/01 06:33:36;;;;;;;8.90;4.07;;;;;;;24.14;50.31;99499.84;5093459;28;20451;-62
2023/08/01 06:36:06;;;;;;;7.82;3.50;;;;;;;24.16;50.43;99502.34;5094287;28;20056;-62
2023/08/01 06:38:34;;;;;;;7.90;3.88;;;;;;;24.18;50.63;99498.38;5093849;28;20051;-62
2023/08/01 06:41:02;;;;;;;7.90;3.97;;;;;;;24.19;50.50;99494.63;5094557;28;20118;-62
2023/08/01 06:43:31;;;;;;;8.10;3.83;;;;;;;24.20;50.56;99498.19;5094240;28;20071;-62
2023/08/01 06:45:59;;;;;;;9.88;3.72;;;;;;;24.22;50.25;99494.25;5094811;28;20074;-62
2023/08/01 06:48:29;;;;;;;6.30;3.67;;;;;;;24.24;50.41;99488.59;5094519;28;20052;-62
2023/08/01 06:50:58;;;;;;;8.77;3.88;;;;;;;24.25;50.38;99490.28;5094764;28;20481;-62
2023/08/01 06:53:26;;;;;;;7.18;3.70;;;;;;;24.26;50.40;99483.78;5093900;28;20048;-62
2023/08/01 06:55:54;;;;;;;9.10;3.60;;;;;;;24.26;50.45;99475.59;5094063;28;20090;-62
2023/08/01 06:58:23;;;;;;;8.38;3.58;;;;;;;24.28;50.68;99484.41;5094292;28;20048;-62
2023/08/01 07:00:51;;;;;;;8.05;3.50;;;;;;;24.30;50.48;99482.31;5094216;28;20078;-62
2023/08/01 07:03:19;;;;;;;10.57;3.47;;;;;;;24.31;50.77;99478.59;5094070;28;20140;-63
2023/08/01 07:05:49;;;;;;;7.35;3.30;;;;;;;24.31;50.57;99478.59;5094033;28;20051;-62
2023/08/01 07:08:17;;;;;;;8.13;3.65;;;;;;;24.34;50.56;99483.66;5094247;28;20052;-62
2023/08/01 07:10:47;;;;;;;7.07;3.70;;;;;;;24.35;50.49;99479.06;5093843;28;20109;-61
2023/08/01 07:13:16;;;;;;;8.43;3.53;;;;;;;24.35;50.61;99474.44;5093512;28;20052;-61
2023/08/01 07:15:45;;;;;;;6.28;3.22;;;;;;;24.38;50.60;99474.03;5093995;28;20067;-63
2023/08/01 07:18:13;;;;;;;6.90;3.40;;;;;;;24.39;50.63;99469.41;5076059;28;20493;-62
2023/08/01 07:20:42;;;;;;;6.68;3.53;;;;;;;24.40;50.56;99471.94;5093679;28;20040;-64
2023/08/01 07:23:11;;;;;;;6.65;3.35;;;;;;;24.42;50.46;99467.16;5093955;28;20135;-62
2023/08/01 07:25:39;;;;;;;6.32;3.28;;;;;;;24.35;50.28;99447.19;5093992;28;20193;-62
2023/08/01 07:28:07;;;;;;;7.18;3.40;;;;;;;24.46;50.55;99465.69;5075758;28;20051;-62
2023/08/01 07:30:36;;;;;;;6.70;2.83;;;;;;;24.46;50.54;99471.16;5093639;28;20088;-64
2023/08/01 07:33:04;;;;;;;6.45;3.08;;;;;;;24.48;50.70;99469.06;5093282;28;20413;-62
2023/08/01 07:35:32;;;;;;;7.80;3.33;;;;;;;24.49;50.53;99469.91;5093569;28;20048;-62
2023/08/01 07:38:01;;;;;;;6.15;3.17;;;;;;;24.50;50.75;99466.97;5093741;28;20068;-62
2023/08/01 07:40:30;;;;;;;7.15;3.10;;;;;;;24.52;50.62;99467.63;5093830;28;20044;-62
2023/08/01 07:42:59;;;;;;;8.82;3.40;;;;;;;24.51;50.44;99463.22;5093293;28;20654;-62
2023/08/01 07:45:27;;;;;;;5.13;2.70;;;;;;;24.55;50.48;99458.19;5093389;28;20048;-63
2023/08/01 07:47:56;;;;;;;5.30;2.92;;;;;;;24.54;50.45;99451.91;5093376;28;20130;-62
2023/08/01 07:50:24;;;;;;;5.55;3.10;;;;;;;24.57;50.66;99456.09;5093320;28;20080;-63
2023/08/01 07:52:52;;;;;;;6.57;3.20;;;;;;;24.60;50.69;99443.94;5093166;28;20052;-62
2023/08/01 07:55:21;;;;;;;6.95;2.67;;;;;;;24.61;50.76;99438.31;5093359;28;20448;-62
2023/08/01 07:57:50;;;;;;;7.20;2.90;;;;;;;24.63;50.76;99435.38;5093237;28;20056;-61
2023/08/01 08:00:20;;;;;;;7.45;2.70;;;;;;;24.64;50.64;99439.78;5092869;28;20382;-63
2023/08/01 08:02:49;;;;;;;5.78;2.97;;;;;;;24.65;50.45;99430.56;5093053;28;20061;-64
2023/08/01 08:05:20;;;;;;;5.10;2.97;;;;;;;24.66;50.55;99427.63;5093246;28;20048;-63
2023/08/01 08:07:48;;;;;;;5.85;2.72;;;;;;;24.68;50.67;99424.69;5092891;28;20158;-63
2023/08/01 08:10:16;;;;;;;4.20;2.28;;;;;;;24.69;50.33;99427.22;5092778;28;20051;-63
2023/08/01 08:12:44;;;;;;;6.68;2.88;;;;;;;24.71;50.46;99418.84;5092934;28;20395;-63
2023/08/01 08:15:15;;;;;;;6.93;3.00;;;;;;;24.73;50.62;99422.22;5093074;28;20078;-63
2023/08/01 08:17:43;;;;;;;5.43;2.50;;;;;;;24.75;50.41;99428.28;5092931;28;20485;-63
2023/08/01 08:20:12;;;;;;;6.85;2.78;;;;;;;24.76;50.41;99421.78;5092929;28;20124;-63
2023/08/01 08:22:40;;;;;;;8.35;2.97;;;;;;;24.78;50.57;99419.69;5092432;28;20051;-63
2023/08/01 08:25:08;;;;;;;4.60;2.63;;;;;;;24.79;50.30;99416.75;5091915;28;20101;-63
2023/08/01 08:27:37;;;;;;;6.97;2.83;;;;;;;24.79;50.72;99421.38;5092800;28;20461;-63
2023/08/01 08:30:07;;;;;;;5.13;2.60;;;;;;;24.81;50.50;99419.31;5091539;28;20067;-63
2023/08/01 08:32:37;;;;;;;4.50;2.50;;;;;;;24.83;50.63;99422.66;5092540;28;20405;-63
2023/08/01 08:35:05;;;;;;;5.47;2.70;;;;;;;24.83;50.52;99409.03;5092195;28;20518;-63
2023/08/01 08:37:33;;;;;;;6.88;2.53;;;;;;;24.87;50.38;99412.19;5092151;28;20059;-63
2023/08/01 08:40:02;;;;;;;4.38;2.55;;;;;;;24.88;50.49;99408.41;5092129;28;20432;-63
2023/08/01 08:42:30;;;;;;;4.80;2.60;;;;;;;24.88;50.57;99409.25;5092145;28;20515;-63
2023/08/01 08:45:02;;;;;;;5.43;2.78;;;;;;;24.90;50.23;99407.19;5092424;28;20131;-63
2023/08/01 08:47:32;;;;;;;4.53;2.38;;;;;;;24.91;50.43;99406.13;5092227;28;20079;-63
2023/08/01 08:50:03;;;;;;;4.82;2.50;;;;;;;24.92;50.62;99405.06;5092132;28;20044;-63
2023/08/01 08:52:31;;;;;;;3.97;2.20;;;;;;;24.93;50.48;99395.84;5073906;28;20139;-63
2023/08/01 08:55:02;;;;;;;5.15;2.50;;;;;;;24.95;50.51;99398.38;5092116;28;20143;-63
2023/08/01 08:57:31;;;;;;;5.78;2.60;;;;;;;24.97;50.65;99399.00;5091998;28;20040;-63
2023/08/01 09:00:04;;;;;;;5.10;2.47;;;;;;;24.99;50.24;99391.44;5092146;28;20122;-62
2023/08/01 09:02:33;;;;;;;4.85;2.38;;;;;;;25.00;50.44;99393.97;5091930;28;20048;-62
2023/08/01 09:05:03;;;;;;;5.65;2.50;;;;;;;25.00;50.26;99391.25;5091698;28;20040;-63
2023/08/01 09:07:34;;;;;;;7.05;2.78;;;;;;;25.02;50.15;99389.19;5092182;28;20052;-63
2023/08/01 09:10:03;;;;;;;3.85;2.08;;;;;;;25.04;50.47;99378.91;5091867;28;20056;-63
2023/08/01 09:12:35;;;;;;;3.92;2.42;;;;;;;25.06;50.43;99379.53;5091821;28;20048;-63
2023/08/01 09:15:03;;;;;;;4.65;2.30;;;;;;;25.07;50.06;99375.75;5091693;28;20109;-61
2023/08/01 09:17:31;;;;;;;4.50;2.40;;;;;;;25.10;50.23;99369.91;5091563;28;20036;-62
2023/08/01 09:20:06;;;;;;;3.35;1.98;;;;;;;25.11;50.17;99366.13;5091612;28;20048;-63
2023/08/01 09:22:43;;;;;;;4.85;2.45;;;;;;;25.13;50.12;99362.34;5091509;28;20044;-63
2023/08/01 09:25:12;;;;;;;3.78;2.10;;;;;;;25.15;50.01;99360.25;5091556;28;20044;-62
2023/08/01 09:27:40;;;;;;;4.13;2.10;;;;;;;25.16;50.22;99345.53;5091441;28;20600;-62
2023/08/01 09:30:11;;;;;;;5.15;2.15;;;;;;;25.19;50.27;99346.00;5091363;28;20052;-62
2023/08/01 09:32:39;;;;;;;6.18;2.30;;;;;;;25.21;50.43;99334.84;5091445;28;20553;-62
2023/08/01 09:35:09;;;;;;;4.88;2.50;;;;;;;25.24;50.21;99339.88;5091342;28;20101;-62
2023/08/01 09:37:42;;;;;;;4.63;2.10;;;;;;;25.26;50.21;99341.34;5091605;28;20047;-62
2023/08/01 09:40:11;;;;;;;3.97;2.20;;;;;;;25.28;49.72;99336.50;5091417;28;20070;-62
2023/08/01 09:42:40;;;;;;;3.83;2.15;;;;;;;25.31;49.84;99335.28;5091697;28;20135;-62
2023/08/01 09:45:14;;;;;;;4.30;2.35;;;;;;;25.32;49.78;99334.22;5091473;28;20125;-62
2023/08/01 09:47:43;;;;;;;4.70;2.22;;;;;;;25.35;49.82;99331.06;5091519;28;20136;-62
2023/08/01 09:50:25;;;;;;;3.08;1.90;;;;;;;25.36;49.93;99330.84;5091569;28;20506;-62
2023/08/01 09:52:53;;;;;;;5.72;2.33;;;;;;;25.37;50.06;99328.97;5091231;28;20135;-63
2023/08/01 09:55:27;;;;;;;3.28;2.08;;;;;;;25.39;49.84;99326.88;5091554;28;20052;-62
2023/08/01 09:57:58;;;;;;;4.45;2.30;;;;;;;25.41;49.56;99327.50;5091280;28;20127;-62
2023/08/01 10:00:27;;;;;;;4.20;2.53;;;;;;;25.43;49.47;99325.41;5091137;28;20516;-62
2023/08/01 10:02:59;;;;;;;4.10;2.30;;;;;;;25.45;49.48;99317.00;5091018;28;20059;-63
2023/08/01 10:05:32;;;;;;;4.47;2.30;;;;;;;25.47;49.15;99302.06;5090947;28;20105;-63
2023/08/01 10:08:01;;;;;;;4.33;2.03;;;;;;;25.49;49.39;99312.81;5090948;28;20640;-63
2023/08/01 10:10:30;;;;;;;5.40;2.20;;;;;;;25.51;49.18;99299.78;5090865;28;20543;-63
2023/08/01 10:12:59;;;;;;;2.88;1.70;;;;;;;25.53;49.39;99300.41;5091239;28;20409;-63
2023/08/01 10:15:29;;;;;;;5.50;2.00;;;;;;;25.54;49.17;99300.19;5091375;28;20091;-63
2023/08/01 10:17:58;;;;;;;2.97;1.80;;;;;;;25.55;49.03;99285.47;5091048;28;20050;-63
2023/08/01 10:20:26;;;;;;;3.45;1.77;;;;;;;25.58;49.00;99284.25;5090909;28;20110;-63
2023/08/01 10:22:59;;;;;;;4.10;1.90;;;;;;;25.59;49.31;99284.03;5090903;28;20543;-63
2023/08/01 10:25:30;;;;;;;4.95;2.40;;;;;;;25.61;48.86;99289.28;5091161;28;20165;-63
2023/08/01 10:27:59;;;;;;;4.32;2.20;;;;;;;25.63;49.11;99293.47;5090980;28;20074;-63
2023/08/01 10:30:28;;;;;;;2.85;1.80;;;;;;;25.67;49.13;99282.94;5090814;28;20503;-63
2023/08/01 10:32:57;;;;;;;3.38;1.85;;;;;;;25.69;48.66;99276.22;5090575;28;20559;-63
2023/08/01 10:35:36;;;;;;;3.60;2.00;;;;;;;25.72;48.53;99265.97;5090944;28;20052;-63
2023/08/01 10:38:07;;;;;;;4.20;2.03;;;;;;;25.74;48.79;99263.84;5090871;28;20048;-62
2023/08/01 10:40:40;;;;;;;3.88;2.30;;;;;;;25.78;48.25;99267.84;5090824;28;20048;-63
2023/08/01 10:43:21;;;;;;;3.90;1.95;;;;;;;25.81;48.13;99267.41;5090714;28;20091;-63
2023/08/01 10:45:49;;;;;;;3.70;1.98;;;;;;;25.82;48.11;99260.88;5090755;28;20489;-63
2023/08/01 10:48:18;;;;;;;2.75;1.75;;;;;;;25.84;48.38;99256.03;5092836;28;20051;-63
2023/08/01 10:50:56;;;;;;;2.83;1.70;;;;;;;25.84;48.15;99245.13;5094497;28;20048;-63
2023/08/01 10:53:26;;;;;;;3.58;1.80;;;;;;;25.88;48.01;99241.75;5094355;28;20055;-63
2023/08/01 10:55:54;;;;;;;4.30;2.05;;;;;;;25.90;47.85;99244.25;5094152;28;20080;-62
2023/08/01 10:58:28;;;;;;;4.03;2.00;;;;;;;25.93;47.57;99243.81;5094523;28;20052;-62
2023/08/01 11:00:59;;;;;;;3.55;1.90;;;;;;;25.95;47.55;99230.78;5094448;28;20189;-61
2023/08/01 11:03:35;;;;;;;2.90;1.80;;;;;;;25.96;47.53;99238.78;5094053;28;20516;-64
2023/08/01 11:06:04;;;;;;;3.47;1.70;;;;;;;25.95;47.35;99225.31;5094176;28;20390;-64
2023/08/01 11:08:39;;;;;;;3.65;1.80;;;;;;;26.01;47.20;99224.47;5094149;28;20724;-63
2023/08/01 11:11:11;;;;;;;3.40;1.98;;;;;;;26.02;46.79;99214.38;5093856;28;20051;-63
2023/08/01 11:13:50;;;;;;;3.10;1.88;;;;;;;26.04;47.25;99209.53;5093920;28;20125;-62
2023/08/01 11:16:19;;;;;;;3.25;1.70;;;;;;;26.05;47.17;99214.75;5093842;28;20097;-63
2023/08/01 11:18:47;;;;;;;3.35;1.58;;;;;;;26.07;46.94;99212.69;5093890;28;20093;-63
2023/08/01 11:21:26;;;;;;;3.13;1.73;;;;;;;26.07;46.77;99200.91;5093922;28;20383;-62
2023/08/01 11:23:57;;;;;;;2.65;1.75;;;;;;;26.09;46.61;99199.63;5093766;28;20437;-63
2023/08/01 11:26:25;;;;;;;3.67;1.70;;;;;;;26.10;46.88;99198.56;5093643;28;20047;-62
2023/08/01 11:28:55;;;;;;;2.97;1.67;;;;;;;26.12;46.43;99193.72;5093277;28;20395;-63
2023/08/01 11:31:24;;;;;;;3.28;1.98;;;;;;;26.13;46.24;99195.38;5093468;28;20052;-63
2023/08/01 11:34:04;;;;;;;3.83;1.80;;;;;;;26.15;46.33;99195.16;5093531;28;20044;-62
2023/08/01 11:36:33;;;;;;;4.05;1.77;;;;;;;26.17;46.23;99193.06;5093499;28;20562;-62
2023/08/01 11:39:03;;;;;;;3.60;1.80;;;;;;;26.18;46.25;99189.28;5093498;28;20048;-63
2023/08/01 11:41:32;;;;;;;3.42;1.95;;;;;;;26.19;46.22;99183.59;5093236;28;20048;-62
2023/08/01 11:44:05;;;;;;;3.20;1.75;;;;;;;26.20;46.33;99178.97;5093462;28;20066;-62